AirNav   Advertisement
 
 1038 users online  

KHRU Herington Regional Airport
Herington, Kansas, USA


FAA INFORMATION EFFECTIVE 20 JULY 2017

Location

FAA Identifier: HRU
Lat/Long: 38-41-41.0000N / 096-48-28.7000W
38-41.683333N / 096-48.478333W
38.6947222 / -96.8079722
(estimated)
Elevation: 1480.6 ft. / 451.3 m (surveyed)
Variation: 06E (1985)
From city: 7 miles NE of HERINGTON, KS
Time zone: UTC -5 (UTC -6 during Standard Time)
Zip code: 67449

Airport Operations

Airport use: Open to the public
Activation date: 02/1944
Control tower: no
ARTCC: KANSAS CITY CENTER
FSS: WICHITA FLIGHT SERVICE STATION
NOTAMs facility: ICT (NOTAM-D service available)
Attendance: UNATNDD
FOR TRANSPORTATION CALL 785-258-2877 DAYS ONLY OR AIRPORT MGMNT CELL PH. 785-258-0174. NIGHTTIME PH. 785-258-2560.
Pattern altitude: 2300.6 ft. MSL
Wind indicator: lighted, TET LGTD FOR NGT WITH LGTD WINDSOCK.
Segmented circle: no
Lights: ACTIVATE MIRL, REIL AND PAPI RWY 17/35 CTAF.
Beacon: white-green (lighted land airport)
Operates sunset to sunrise.

Airport Communications

CTAF: 122.9
  • APCH/DEP SVC PRVDD BY KANSAS CITY ARTCC ON 127.35/257.97 (MANHATTAN RCAG).

Nearby radio navigation aids

VOR radial/distance  VOR name  Freq  Var
FRIr165/(16.7)FORT RILEY VOR109.4006E
MHKr190/27.8MANHATTAN VOR/DME110.2004E
EMPr300/39.7EMPORIA VORTAC112.8008E

 
NDB name  Hdg/Dist  Freq  Var  ID
HERINGTONat field40706EHRU .... .-. ..-
CAVALRY176/19.931406ECVY -.-. ...- -.--

Airport Services

Fuel available: 100LL
FUEL AVBL 24 HRS BY CREDIT CARD.
Parking: hangars and tiedowns
Airframe service: NONE
Powerplant service: NONE
Bottled oxygen: NONE
Bulk oxygen: NONE

Runway Information

Runway 17/35

Dimensions: 4184 x 75 ft. / 1275 x 23 m
Surface: concrete, in excellent condition
Weight bearing capacity: 
Single wheel: 36.0
Double wheel: 58.0
Runway edge lights: medium intensity
RUNWAY 17  RUNWAY 35
Latitude: 38-42.027222N38-41.337973N
Longitude: 096-48.477768W096-48.479642W
Elevation: 1478.1 ft.1477.1 ft.
Traffic pattern: leftleft
Runway heading: 174 magnetic, 180 true354 magnetic, 000 true
Markings: nonprecision, in good conditionnonprecision, in good condition
Visual slope indicator: 4-light PAPI on left (3.00 degrees glide path)4-light PAPI on left (3.00 degrees glide path)
Runway end identifier lights: yesyes
Touchdown point: yes, no lightsyes, no lights

Airport Ownership and Management from official FAA records

Ownership: Publicly-owned
Owner: CITY OF HERINGTON
P O BOX 31
HERINGTON, KS 67449
Phone 785-258-2271
Manager: MERLIN OSWALD
3134 US HWY 56
HERINGTON, KS 67449
Phone 785-258-2877
AMGR NIGHTTIME PHONE 785-258-2560.

Airport Operational Statistics

Aircraft based on the field: 10
Single engine airplanes: 9
Ultralights: 1
    
Aircraft operations: avg 34/day *
48% transient general aviation
44% local general aviation
8% military
* for 12-month period ending 28 September 2016

Additional Remarks

PILOTS LOUNGE PHONE NUMBER 785-258-3822.
PUBLIC PHONE AVBL 24 HRS IN PILOTS LOUNGE.
RDO-CTLD MODEL ACFT ACTIVITY ON ARPT WKENDS & HOLS.

Instrument Procedures

NOTE: All procedures below are presented as PDF files. If you need a reader for these files, you should download the free Adobe Reader.

NOT FOR NAVIGATION. Please procure official charts for flight.
FAA instrument procedures published for use between 20 July 2017 at 0901Z and 17 August 2017 at 0900Z.

 
IAPs - Instrument Approach Procedures
RNAV (GPS) RWY 17   download (188KB)
RNAV (GPS) RWY 35   download (193KB)
NDB RWY 17   download (138KB)
NDB RWY 35   download (146KB)
NOTE: Special Take-Off Minimums/Departure Procedures apply   download (147KB)

Other nearby airports with instrument procedures:

3JC - Freeman Field Airport (21 nm N)
KFRI - Marshall Army Airfield (22 nm N)
K78 - Abilene Municipal Airport (24 nm NW)
KMHK - Manhattan Regional Airport (28 nm N)
KEMP - Emporia Municipal Airport (36 nm SE)
 
Loc | Ops | Rwys | IFR | FBO | Links
Com | Nav | Svcs | Stats | Notes

Kansas City Aviation Department
 
Area around KHRU (Herington Regional Airport)
 
Road maps at: MapQuest Bing Google
 
Aerial photo
No photo
 
Sectional chart

 
Airport distance calculator
Flying to Herington Regional Airport? Find the distance to fly.

From to KHRU

Sunrise and sunset
Times for 23-Jul-2017
 Local
(UTC-5)
 Zulu
(UTC)
Morning civil twilight05:5210:52
Sunrise06:2211:22
Sunset20:4501:45
Evening civil twilight21:1602:16

Current date and time
Zulu (UTC)  23-Jul-2017 16:09:32
Local (UTC-5)  23-Jul-2017 11:09:32
 
METAR
KFRI 
20nm N 
231558Z AUTO 34005KT 10SM CLR 29/20 A2996 RMK AO2 SLP134 T02890199
KMHK 
27nm N 
231552Z VRB04KT 10SM CLR 29/21 A2996 RMK AO2 SLP134 T02940206
KEMP 
36nm SE 
231553Z AUTO 32009KT 10SM CLR 29/20 A2995 RMK AO2 SLP133 T02890200
KSLN 
40nm W 
231553Z 33010KT 10SM CLR 30/20 A2999 RMK AO2 SLP140 T03000200
TAF
NOTAMs
Click for the latest NOTAMs
NOTAMs are issued by the DoD/FAA and will open in a separate window not controlled by AirNav.

 

 
 

FBO, Fuel Providers, and Aircraft Ground Support

  
 Business Name 
 
 Contact 
 
 Services / Description 
 
Fuel Prices
 
Comments
  
City of Herington (self-serve fuel) 785-258-3822
[email]
Aviation fuel, Aircraft parking (ramp or tiedown), Hangars, Hangar leasing / sales, Passenger terminal and lounge, Rental cars, Public telephone, Restrooms

More info about City of Herington (self-serve fuel)
independent
100LL
SS $4.99 
 Updated 14-Aug-2015
 
   1 read write
SS=Self service
Update Fuel Prices
 

Would you like to see your business listed on this page?

 If your business provides an interesting product or service to pilots, flight crews, aircraft, or users of the Herington Regional Airport, you should consider listing it here.  To start the listing process, click on the button below
 
Add a business
 

Other Pages about Herington Regional Airport

Update a link
 
Copyright © AirNav, LLC. All rights reserved. Privacy Policy  Contact